Time;durP1;ratioP1;P1;durP2;ratioP2;P2;SDS_P1;SDS_P2;PMS_P1;PMS_P2;Temp;Humidity;BMP_temperature;BMP_pressure;BME280_temperature;BME280_humidity;BME280_pressure;Samples;Min_cycle;Max_cycle;Signal;HPM_P1;HPM_P2
2022/06/02 00:00:20;;;;;;;9.50;9.20;;;13.90;99.90;;;;;;5025426;28;20307;-80
2022/06/02 00:03:16;;;;;;;9.47;9.17;;;13.80;99.90;;;;;;5025672;28;20267;-80
2022/06/02 00:06:13;;;;;;;9.17;8.87;;;13.70;99.90;;;;;;5025482;28;20224;-81
2022/06/02 00:09:09;;;;;;;9.50;9.20;;;13.60;99.90;;;;;;5025276;28;20242;-81
2022/06/02 00:11:56;;;;;;;9.80;9.50;;;13.60;99.90;;;;;;5025244;28;20238;-81
2022/06/02 00:14:32;;;;;;;9.50;9.20;;;13.50;99.90;;;;;;5024943;28;20226;-81
2022/06/02 00:17:11;;;;;;;9.40;9.10;;;13.60;99.90;;;;;;5024471;28;20228;-81
2022/06/02 00:19:49;;;;;;;9.37;9.07;;;13.50;99.90;;;;;;5024693;28;20235;-81
2022/06/02 00:22:24;;;;;;;9.47;9.17;;;13.40;99.90;;;;;;5024192;28;20953;-81
2022/06/02 00:25:05;;;;;;;9.53;9.23;;;13.40;99.90;;;;;;5024593;28;20230;-81
2022/06/02 00:27:44;;;;;;;9.43;9.13;;;13.40;99.90;;;;;;5025182;28;20220;-81
2022/06/02 00:30:22;;;;;;;9.47;9.17;;;13.40;99.90;;;;;;5026362;28;20257;-81
2022/06/02 00:33:00;;;;;;;9.30;9.00;;;13.30;99.90;;;;;;5027348;28;20236;-81
2022/06/02 00:35:38;;;;;;;9.30;9.00;;;13.30;99.90;;;;;;5026455;28;20244;-81
2022/06/02 00:38:18;;;;;;;8.90;8.70;;;13.30;99.90;;;;;;5026369;28;20258;-80
2022/06/02 00:40:48;;;;;;;9.33;9.03;;;13.30;99.90;;;;;;5032633;28;20236;-81
2022/06/02 00:43:43;;;;;;;9.37;9.07;;;13.20;99.90;;;;;;5035939;28;20300;-80
2022/06/02 00:46:22;;;;;;;9.50;9.20;;;13.20;99.90;;;;;;5030163;28;20216;-81
2022/06/02 00:49:01;;;;;;;9.40;9.10;;;13.20;99.90;;;;;;5028278;28;20230;-81
2022/06/02 00:51:48;;;;;;;9.30;9.00;;;13.20;99.90;;;;;;5028472;28;20244;-80
2022/06/02 00:57:31;;;;;;;9.30;9.00;;;13.30;99.90;;;;;;5027811;28;20216;-81
2022/06/02 01:00:17;;;;;;;9.40;9.10;;;13.20;99.90;;;;;;5027967;28;20216;-80
2022/06/02 01:03:14;;;;;;;9.43;9.13;;;13.30;99.90;;;;;;5027936;28;20240;-80
2022/06/02 01:06:08;;;;;;;9.60;9.30;;;13.20;99.90;;;;;;5028498;28;20264;-79
2022/06/02 01:09:04;;;;;;;9.70;9.40;;;13.20;99.90;;;;;;5029042;28;20240;-80
2022/06/02 01:11:42;;;;;;;9.27;8.97;;;13.20;99.90;;;;;;5028364;28;20231;-80
2022/06/02 01:14:32;;;;;;;9.40;9.10;;;13.30;99.90;;;;;;5029627;28;20287;-80
2022/06/02 01:17:09;;;;;;;9.27;8.97;;;13.30;99.90;;;;;;5030024;28;20236;-80
2022/06/02 01:20:13;;;;;;;9.30;9.00;;;13.30;99.90;;;;;;5030466;28;20232;-79
2022/06/02 01:23:17;;;;;;;9.13;8.83;;;13.20;99.90;;;;;;5037529;28;20222;-79
2022/06/02 01:26:13;;;;;;;9.20;8.90;;;13.10;99.90;;;;;;5036173;28;20331;-80
2022/06/02 01:28:59;;;;;;;9.43;9.13;;;12.90;99.90;;;;;;5008650;28;20232;-79
2022/06/02 01:31:40;;;;;;;9.20;8.90;;;12.80;99.90;;;;;;5024924;28;20238;-80
2022/06/02 01:34:26;;;;;;;9.40;9.10;;;12.90;99.90;;;;;;5024065;28;21019;-80
2022/06/02 01:37:04;;;;;;;9.37;9.07;;;12.80;99.90;;;;;;5024251;28;20223;-80
2022/06/02 01:39:51;;;;;;;9.30;9.00;;;12.70;99.90;;;;;;5023949;28;20252;-80
2022/06/02 01:42:30;;;;;;;9.27;8.97;;;12.80;99.90;;;;;;5023416;28;20234;-80
2022/06/02 01:45:07;;;;;;;8.90;8.70;;;12.80;99.90;;;;;;5023490;28;20232;-80
2022/06/02 01:47:40;;;;;;;9.17;8.87;;;12.70;99.90;;;;;;5023842;28;20232;-80
2022/06/02 01:50:32;;;;;;;9.00;8.80;;;12.60;99.90;;;;;;5024091;28;20240;-80
2022/06/02 01:53:10;;;;;;;9.07;8.80;;;12.50;99.90;;;;;;5023944;28;20246;-80
2022/06/02 01:56:23;;;;;;;9.17;8.87;;;12.50;99.90;;;;;;5023625;28;20234;-80
2022/06/02 01:59:12;;;;;;;8.90;8.70;;;12.40;99.90;;;;;;5023376;28;20232;-80
2022/06/02 02:01:50;;;;;;;9.00;8.80;;;12.50;99.90;;;;;;5029676;28;20255;-79
2022/06/02 02:04:46;;;;;;;9.00;8.80;;;12.50;99.90;;;;;;5031924;28;20250;-79
2022/06/02 02:07:35;;;;;;;8.87;8.67;;;12.60;99.90;;;;;;5032590;28;20275;-80
2022/06/02 02:10:20;;;;;;;8.60;8.40;;;12.50;99.90;;;;;;5031048;28;20324;-80
2022/06/02 02:13:05;;;;;;;8.80;8.60;;;12.50;99.90;;;;;;5027205;28;20347;-80
2022/06/02 02:15:52;;;;;;;8.90;8.70;;;12.50;99.90;;;;;;5027517;28;20300;-80
2022/06/02 02:18:40;;;;;;;8.87;8.67;;;12.50;99.90;;;;;;5026613;28;20302;-80
2022/06/02 02:21:21;;;;;;;8.70;8.50;;;12.50;99.90;;;;;;5025681;28;20236;-80
2022/06/02 02:24:07;;;;;;;8.50;8.30;;;12.40;99.90;;;;;;5029014;28;20308;-80
2022/06/02 02:26:43;;;;;;;8.57;8.37;;;12.40;99.90;;;;;;5027693;28;20238;-80
2022/06/02 02:29:24;;;;;;;8.50;8.30;;;12.40;99.90;;;;;;5026007;28;20220;-80
2022/06/02 02:32:08;;;;;;;8.57;8.37;;;12.30;99.90;;;;;;5026648;28;20239;-80
2022/06/02 02:34:55;;;;;;;8.60;8.40;;;12.30;99.90;;;;;;5026048;28;20235;-80
2022/06/02 02:37:35;;;;;;;8.70;8.50;;;12.30;99.90;;;;;;5026495;28;20243;-80
2022/06/02 02:40:21;;;;;;;8.80;8.60;;;12.20;99.90;;;;;;5026239;28;20232;-80
2022/06/02 02:43:01;;;;;;;8.30;8.10;;;12.20;99.90;;;;;;5025847;28;20272;-80
2022/06/02 02:45:49;;;;;;;8.70;8.50;;;12.20;99.90;;;;;;5025721;28;20448;-79
2022/06/02 02:48:34;;;;;;;9.43;9.13;;;12.10;99.90;;;;;;5025958;28;20236;-80
2022/06/02 02:51:14;;;;;;;9.60;9.30;;;12.10;99.90;;;;;;5025629;28;20236;-80
2022/06/02 02:53:53;;;;;;;9.50;9.20;;;12.10;99.90;;;;;;5026404;28;20232;-79
2022/06/02 02:56:33;;;;;;;9.30;9.00;;;12.00;99.90;;;;;;5029651;28;20231;-79
2022/06/02 02:59:08;;;;;;;9.50;9.20;;;12.00;99.90;;;;;;5037728;28;20267;-80
2022/06/02 03:01:47;;;;;;;9.57;9.27;;;11.90;99.90;;;;;;5032522;28;20208;-80
2022/06/02 03:04:32;;;;;;;9.60;9.30;;;11.90;99.90;;;;;;5029513;28;20236;-79
2022/06/02 03:07:02;;;;;;;10.10;9.80;;;11.80;99.90;;;;;;5028068;28;20232;-80
2022/06/02 03:09:42;;;;;;;9.77;9.47;;;11.80;99.90;;;;;;5032184;28;20292;-80
2022/06/02 03:12:21;;;;;;;9.77;9.47;;;11.60;99.90;;;;;;5029134;28;20292;-79
2022/06/02 03:15:15;;;;;;;9.77;9.47;;;11.50;99.90;;;;;;5027934;28;20232;-80
2022/06/02 03:18:11;;;;;;;9.70;9.40;;;11.40;99.90;;;;;;5026108;28;20299;-79
2022/06/02 03:20:57;;;;;;;9.90;9.60;;;11.30;99.90;;;;;;5025357;28;20239;-79
2022/06/02 03:24:03;;;;;;;9.67;9.37;;;11.20;99.90;;;;;;5025585;28;20224;-80
2022/06/02 03:26:59;;;;;;;9.40;9.10;;;11.30;99.90;;;;;;5021734;28;20236;-79
2022/06/02 03:29:55;;;;;;;9.70;9.40;;;11.20;99.90;;;;;;5024608;28;20246;-80
2022/06/02 03:32:49;;;;;;;9.73;9.43;;;11.20;99.90;;;;;;5024773;28;20240;-80
2022/06/02 03:35:28;;;;;;;9.40;9.10;;;11.10;99.90;;;;;;5024315;28;20232;-79
2022/06/02 03:38:14;;;;;;;9.43;9.13;;;11.10;99.90;;;;;;5024186;28;20335;-80
2022/06/02 03:41:05;;;;;;;9.50;9.20;;;11.10;99.90;;;;;;5024171;28;20231;-80
2022/06/02 03:43:42;;;;;;;9.50;9.20;;;11.10;99.90;;;;;;5024904;28;20232;-79
2022/06/02 03:46:28;;;;;;;9.40;9.10;;;11.00;99.90;;;;;;5025329;28;20214;-80
2022/06/02 03:49:41;;;;;;;9.97;9.67;;;10.90;99.90;;;;;;5025138;28;20240;-80
2022/06/02 03:52:28;;;;;;;9.47;9.17;;;10.90;99.90;;;;;;5009612;28;20255;-80
2022/06/02 03:55:14;;;;;;;9.70;9.40;;;11.00;99.90;;;;;;5024577;28;20224;-80
2022/06/02 04:01:06;;;;;;;9.80;9.50;;;11.00;99.90;;;;;;5039671;28;20232;-79
2022/06/02 04:03:54;;;;;;;9.90;9.60;;;11.10;99.90;;;;;;5040699;28;20222;-78
2022/06/02 04:06:40;;;;;;;9.83;9.53;;;11.00;99.90;;;;;;5040383;28;20238;-78
2022/06/02 04:09:35;;;;;;;9.47;9.17;;;11.10;99.90;;;;;;5038530;28;20212;-80
2022/06/02 04:15:54;;;;;;;9.77;9.47;;;11.10;99.90;;;;;;5022775;28;20212;-80
2022/06/02 04:18:33;;;;;;;9.70;9.40;;;11.00;99.90;;;;;;5021743;28;20243;-81
2022/06/02 04:21:13;;;;;;;9.83;9.53;;;11.10;99.90;;;;;;5021931;28;20257;-81
2022/06/02 04:24:25;;;;;;;10.00;9.70;;;11.20;99.90;;;;;;5021745;28;20231;-82
2022/06/02 04:27:11;;;;;;;10.10;9.80;;;11.10;99.90;;;;;;5022398;28;20236;-82
2022/06/02 04:30:06;;;;;;;9.90;9.60;;;11.10;99.90;;;;;;5021761;28;20266;-81
2022/06/02 04:32:45;;;;;;;9.70;9.40;;;11.10;99.90;;;;;;5048762;22;20236;-82
2022/06/02 04:35:27;;;;;;;10.50;10.20;;;11.10;99.90;;;;;;5037069;28;20248;-82
2022/06/02 04:38:09;;;;;;;10.40;10.10;;;11.10;99.90;;;;;;5028715;28;20232;-82
2022/06/02 04:40:47;;;;;;;10.40;10.10;;;11.10;99.90;;;;;;5017693;28;20255;-82
2022/06/02 04:43:27;;;;;;;10.67;10.37;;;11.20;99.90;;;;;;5023194;28;20244;-83
2022/06/02 04:46:11;;;;;;;10.50;10.20;;;11.20;99.90;;;;;;5021816;28;20842;-83
2022/06/02 04:48:50;;;;;;;10.37;10.07;;;11.30;99.90;;;;;;5021891;28;20306;-82
2022/06/02 04:51:31;;;;;;;10.47;10.17;;;11.30;99.90;;;;;;5020308;28;20242;-82
2022/06/02 04:54:11;;;;;;;10.20;9.90;;;11.30;99.90;;;;;;5020654;28;20339;-83
2022/06/02 04:56:56;;;;;;;10.27;9.97;;;11.40;99.90;;;;;;5020052;28;20246;-82
2022/06/02 04:59:32;;;;;;;10.10;9.80;;;11.40;99.90;;;;;;5019908;28;20231;-83
2022/06/02 05:02:13;;;;;;;10.30;10.00;;;11.50;99.90;;;;;;5021253;28;20238;-83
2022/06/02 05:04:51;;;;;;;10.20;9.90;;;11.60;99.90;;;;;;5022012;28;20220;-83
2022/06/02 05:07:29;;;;;;;10.30;10.00;;;11.70;99.90;;;;;;5021333;28;20250;-81
2022/06/02 05:10:09;;;;;;;10.30;10.00;;;11.80;99.90;;;;;;5020900;28;20247;-81
2022/06/02 05:12:51;;;;;;;10.33;10.03;;;11.80;99.90;;;;;;5009731;28;20284;-82
2022/06/02 05:15:46;;;;;;;10.50;10.20;;;11.90;99.90;;;;;;5009977;28;20217;-82
2022/06/02 05:18:58;;;;;;;10.70;10.40;;;12.00;99.90;;;;;;5002810;28;20233;-82
2022/06/02 05:22:14;;;;;;;10.90;10.60;;;12.20;99.90;;;;;;5001380;28;20244;-81
2022/06/02 05:25:17;;;;;;;10.60;10.30;;;12.30;99.90;;;;;;5000720;28;20244;-81
2022/06/02 05:28:15;;;;;;;10.73;10.43;;;12.20;99.90;;;;;;5000895;28;20231;-82
2022/06/02 05:31:20;;;;;;;10.43;10.13;;;12.30;99.90;;;;;;4990930;28;20232;-81
2022/06/02 05:34:20;;;;;;;10.47;10.17;;;12.20;99.90;;;;;;5001069;28;20293;-83
2022/06/02 05:37:04;;;;;;;10.87;10.57;;;12.20;99.90;;;;;;5016303;28;20271;-81
2022/06/02 05:39:54;;;;;;;10.73;10.43;;;12.30;99.90;;;;;;5001148;28;20344;-81
2022/06/02 05:42:35;;;;;;;11.10;10.80;;;12.30;99.90;;;;;;5001803;28;20268;-81
2022/06/02 05:45:35;;;;;;;11.10;10.80;;;12.40;99.90;;;;;;5001032;28;20319;-81
2022/06/02 05:48:23;;;;;;;10.90;10.60;;;12.50;99.90;;;;;;5001351;28;20231;-83
2022/06/02 05:50:57;;;;;;;10.60;10.30;;;12.60;99.90;;;;;;5001816;28;20213;-81
2022/06/02 05:53:44;;;;;;;10.67;10.37;;;12.60;99.90;;;;;;5001338;28;20240;-82
2022/06/02 05:56:27;;;;;;;10.60;10.30;;;12.70;99.90;;;;;;5002011;28;20235;-82
2022/06/02 05:59:42;;;;;;;10.60;10.30;;;12.80;99.90;;;;;;5004232;28;20205;-81
2022/06/02 06:02:54;;;;;;;10.90;10.60;;;12.90;99.90;;;;;;5003931;28;20232;-81
2022/06/02 06:05:30;;;;;;;11.10;10.80;;;13.10;99.90;;;;;;5004651;28;20240;-82
2022/06/02 06:08:31;;;;;;;10.60;10.30;;;13.30;99.90;;;;;;5004834;28;20236;-82
2022/06/02 06:11:22;;;;;;;10.93;10.63;;;13.50;99.90;;;;;;5004241;28;20236;-82
2022/06/02 06:14:16;;;;;;;11.17;10.87;;;13.50;99.90;;;;;;5021947;28;20327;-83
2022/06/02 06:16:51;;;;;;;11.00;10.70;;;13.70;99.90;;;;;;5022023;28;20228;-82
2022/06/02 06:19:42;;;;;;;11.00;10.70;;;13.90;99.90;;;;;;5022088;28;20232;-83
2022/06/02 06:22:53;;;;;;;10.90;10.60;;;14.00;99.90;;;;;;5020677;28;20238;-83
2022/06/02 06:25:47;;;;;;;11.10;10.80;;;14.10;99.90;;;;;;5020830;28;20232;-83
2022/06/02 06:28:23;;;;;;;10.90;10.60;;;14.40;99.90;;;;;;5020963;28;20232;-84
2022/06/02 06:31:07;;;;;;;11.05;10.75;;;14.60;99.90;;;;;;5020571;28;20234;-83
2022/06/02 06:34:49;;;;;;;11.10;10.80;;;14.80;99.90;;;;;;5024035;28;20238;-83
2022/06/02 06:38:24;;;;;;;11.13;10.82;;;15.00;99.90;;;;;;5021711;28;20228;-84
2022/06/02 06:41:51;;;;;;;10.82;10.52;;;15.10;99.90;;;;;;5007938;28;20236;-81
2022/06/02 06:44:28;;;;;;;11.30;11.00;;;15.30;99.90;;;;;;5009990;28;20322;-83
2022/06/02 06:50:04;;;;;;;11.10;10.80;;;15.60;99.90;;;;;;5013434;28;20236;-81
2022/06/02 06:52:52;;;;;;;10.93;10.63;;;15.60;99.90;;;;;;5011444;28;20246;-82
2022/06/02 06:55:38;;;;;;;11.18;10.88;;;15.60;99.90;;;;;;5007801;28;20228;-82
2022/06/02 06:58:36;;;;;;;10.60;10.30;;;15.70;99.90;;;;;;5003471;28;20237;-82
2022/06/02 07:01:10;;;;;;;10.43;10.13;;;15.60;99.90;;;;;;5006513;28;20252;-82
2022/06/02 07:03:51;;;;;;;10.80;10.50;;;15.50;99.90;;;;;;5007491;28;20321;-82
2022/06/02 07:06:31;;;;;;;10.00;9.70;;;15.60;99.90;;;;;;5003168;28;20300;-82
2022/06/02 07:09:05;;;;;;;10.00;9.70;;;15.70;99.90;;;;;;5001610;28;20268;-82
2022/06/02 07:14:38;;;;;;;10.48;10.18;;;15.80;99.90;;;;;;5004041;28;20243;-83
2022/06/02 07:17:13;;;;;;;10.30;10.00;;;16.00;99.90;;;;;;5003283;28;20410;-83
2022/06/02 07:19:49;;;;;;;10.45;10.15;;;16.20;99.90;;;;;;5018671;28;20252;-83
2022/06/02 07:22:26;;;;;;;10.20;9.90;;;16.30;99.90;;;;;;5008155;28;20275;-83
2022/06/02 07:25:13;;;;;;;10.32;10.02;;;16.30;99.90;;;;;;5020044;28;20220;-82
2022/06/02 07:27:51;;;;;;;10.40;10.10;;;16.40;99.90;;;;;;5021838;28;20244;-83
2022/06/02 07:30:50;;;;;;;10.20;9.90;;;16.60;99.90;;;;;;5021375;28;20229;-83
2022/06/02 07:33:44;;;;;;;10.10;9.80;;;16.80;99.90;;;;;;5020507;28;20228;-82
2022/06/02 07:36:47;;;;;;;10.30;10.00;;;17.00;99.90;;;;;;5018880;28;20233;-81
2022/06/02 07:39:47;;;;;;;10.60;10.30;;;17.00;99.90;;;;;;5015609;28;20320;-82
2022/06/02 07:42:39;;;;;;;10.55;10.25;;;17.00;99.90;;;;;;5003298;28;20276;-82
2022/06/02 07:45:32;;;;;;;10.93;10.63;;;17.10;99.90;;;;;;5003615;28;20233;-83
2022/06/02 07:48:50;;;;;;;10.82;10.52;;;17.20;99.90;;;;;;5003409;28;20296;-83
2022/06/02 07:51:29;;;;;;;10.55;10.25;;;17.00;99.90;;;;;;5003923;28;20244;-84
2022/06/02 07:54:20;;;;;;;10.73;10.43;;;17.20;99.90;;;;;;5024799;28;20228;-83
2022/06/02 07:57:04;;;;;;;11.27;10.98;;;17.30;99.90;;;;;;5010962;28;20225;-83
2022/06/02 07:59:50;;;;;;;11.10;10.80;;;17.20;99.90;;;;;;5001948;28;20281;-84
2022/06/02 08:03:10;;;;;;;10.90;10.60;;;17.40;99.90;;;;;;5010217;28;20282;-83
2022/06/02 08:05:46;;;;;;;11.15;10.85;;;17.50;99.90;;;;;;5010985;28;20224;-82
2022/06/02 08:08:30;;;;;;;10.73;10.43;;;17.70;99.90;;;;;;5026153;28;20298;-83
2022/06/02 08:11:28;;;;;;;10.90;10.60;;;17.70;99.90;;;;;;5028480;28;20289;-83
2022/06/02 08:14:09;;;;;;;10.63;10.32;;;17.80;99.90;;;;;;5048635;28;20255;-82
2022/06/02 08:16:51;;;;;;;10.98;10.68;;;17.60;99.90;;;;;;5042904;28;20237;-83
2022/06/02 08:19:35;;;;;;;10.98;10.68;;;17.60;99.90;;;;;;5043031;28;20242;-79
2022/06/02 08:22:09;;;;;;;11.05;10.75;;;17.70;99.90;;;;;;5012904;28;20340;-81
2022/06/02 08:24:59;;;;;;;10.00;9.70;;;17.90;99.90;;;;;;5006528;28;20261;-82
2022/06/02 08:27:58;;;;;;;10.40;10.10;;;18.10;99.90;;;;;;5015059;28;20327;-82
2022/06/02 08:30:41;;;;;;;10.23;9.93;;;18.20;99.90;;;;;;5008202;28;20216;-81
2022/06/02 08:33:39;;;;;;;9.95;9.65;;;18.20;99.90;;;;;;5011840;28;20249;-81
2022/06/02 08:36:14;;;;;;;10.30;10.00;;;18.00;99.90;;;;;;5016448;28;20256;-80
2022/06/02 08:39:36;;;;;;;10.20;9.90;;;18.40;99.90;;;;;;5032606;28;20254;-79
2022/06/02 08:42:53;;;;;;;9.77;9.48;;;18.70;99.90;;;;;;5040625;28;20221;-81
2022/06/02 08:45:58;;;;;;;10.60;10.30;;;18.80;99.90;;;;;;5018326;28;20243;-80
2022/06/02 08:49:38;;;;;;;10.60;10.30;;;19.00;99.90;;;;;;5014832;28;20219;-80
2022/06/02 08:53:07;;;;;;;10.60;10.30;;;19.40;99.90;;;;;;4950459;29;20227;-81
2022/06/02 08:56:18;;;;;;;10.02;9.73;;;19.30;99.90;;;;;;4959711;28;20240;-81
2022/06/02 08:59:40;;;;;;;10.18;9.88;;;19.40;99.90;;;;;;5015799;28;20232;-81
2022/06/02 09:02:49;;;;;;;10.38;10.07;;;19.80;99.90;;;;;;5015784;28;20304;-82
2022/06/02 09:06:26;;;;;;;10.30;10.00;;;19.70;99.90;;;;;;4972373;28;20324;-84
2022/06/02 09:10:02;;;;;;;10.38;10.07;;;20.20;99.90;;;;;;4980767;28;20224;-83
2022/06/02 09:13:09;;;;;;;10.18;9.88;;;20.80;99.90;;;;;;5013432;28;20232;-80
2022/06/02 09:15:56;;;;;;;10.38;10.07;;;21.30;99.90;;;;;;5010407;28;20292;-80
2022/06/02 09:18:52;;;;;;;10.55;10.25;;;21.30;99.90;;;;;;5011366;28;20251;-82
2022/06/02 09:21:25;;;;;;;10.52;10.23;;;21.40;99.90;;;;;;5009046;28;20233;-81
2022/06/02 09:24:04;;;;;;;10.50;10.20;;;21.60;99.90;;;;;;5013362;28;20237;-80
2022/06/02 09:26:52;;;;;;;10.30;10.00;;;21.80;99.90;;;;;;5010092;28;20232;-82
2022/06/02 09:29:26;;;;;;;10.25;9.95;;;21.80;99.90;;;;;;5011547;28;20239;-81
2022/06/02 09:32:24;;;;;;;10.20;9.90;;;22.10;99.90;;;;;;5008163;28;20229;-81
2022/06/02 09:35:10;;;;;;;10.50;10.20;;;22.30;99.90;;;;;;4974982;28;20293;-80
2022/06/02 09:38:16;;;;;;;10.70;10.40;;;22.20;99.90;;;;;;5001781;28;21039;-80
2022/06/02 09:40:50;;;;;;;10.82;10.52;;;22.60;99.90;;;;;;4995348;28;20248;-82
2022/06/02 09:43:50;;;;;;;11.10;10.80;;;22.70;99.90;;;;;;5000599;28;20229;-81
2022/06/02 09:47:09;;;;;;;11.35;11.05;;;22.80;99.90;;;;;;5003845;28;20243;-83
2022/06/02 09:50:20;;;;;;;10.90;10.60;;;23.10;99.90;;;;;;5005074;28;20239;-83
2022/06/02 09:53:34;;;;;;;10.82;10.52;;;23.30;99.90;;;;;;4998654;28;20296;-82
2022/06/02 09:56:23;;;;;;;10.68;10.38;;;22.90;99.90;;;;;;4990655;28;20238;-83
2022/06/02 09:59:11;;;;;;;10.70;10.40;;;22.50;99.90;;;;;;5020883;28;20236;-82
2022/06/02 10:02:17;;;;;;;10.35;10.05;;;22.40;99.90;;;;;;5021573;28;20298;-82
2022/06/02 10:05:18;;;;;;;10.48;10.18;;;22.40;99.90;;;;;;5015836;28;20322;-82
2022/06/02 10:08:13;;;;;;;10.65;10.35;;;22.80;99.90;;;;;;5018231;28;20211;-83
2022/06/02 10:11:00;;;;;;;10.77;10.48;;;23.00;99.90;;;;;;5021219;28;20231;-83
2022/06/02 10:14:09;;;;;;;10.88;10.57;;;22.90;99.90;;;;;;5012739;28;20220;-82
2022/06/02 10:17:20;;;;;;;11.38;11.07;;;23.10;99.90;;;;;;5021528;28;20236;-84
2022/06/02 10:20:50;;;;;;;10.98;10.68;;;23.10;99.90;;;;;;5000534;28;20328;-83
2022/06/02 10:23:49;;;;;;;10.82;10.52;;;23.30;99.90;;;;;;5001400;28;20288;-83
2022/06/02 10:26:31;;;;;;;10.77;10.48;;;23.50;99.90;;;;;;5022957;28;20299;-83
2022/06/02 10:30:08;;;;;;;10.30;10.00;;;23.10;99.90;;;;;;5023147;28;20232;-83
2022/06/02 10:33:35;;;;;;;10.60;10.30;;;23.20;99.90;;;;;;5045210;23;20247;-84
2022/06/02 10:36:42;;;;;;;10.50;10.20;;;23.40;99.90;;;;;;5018504;28;20301;-84
2022/06/02 10:39:38;;;;;;;10.52;10.23;;;23.10;99.90;;;;;;5023393;28;20292;-85
2022/06/02 10:42:27;;;;;;;10.07;9.77;;;23.30;99.90;;;;;;5022253;28;20235;-84
2022/06/02 10:45:20;;;;;;;10.15;9.85;;;23.60;99.90;;;;;;5025791;28;20225;-83
2022/06/02 10:49:00;;;;;;;10.38;10.07;;;23.70;99.90;;;;;;5021244;28;20267;-83
2022/06/02 10:52:23;;;;;;;10.30;10.00;;;23.80;99.90;;;;;;4946878;28;20245;-82
2022/06/02 10:55:20;;;;;;;10.00;9.70;;;24.00;99.90;;;;;;4961672;28;20241;-81
2022/06/02 10:58:40;;;;;;;10.35;10.05;;;23.90;99.90;;;;;;5003866;28;20224;-83
2022/06/02 11:02:12;;;;;;;10.23;9.93;;;23.50;99.90;;;;;;5006085;28;20233;-82
2022/06/02 11:05:42;;;;;;;10.50;10.20;;;23.20;99.90;;;;;;5005011;28;20241;-80
2022/06/02 11:09:33;;;;;;;10.20;9.90;;;23.30;99.90;;;;;;5005093;28;20233;-86
2022/06/02 11:12:45;;;;;;;10.30;10.00;;;23.30;99.90;;;;;;4925285;29;20263;-86
2022/06/02 11:23:29;;;;;;;10.40;10.10;;;24.20;99.90;;;;;;5024968;28;20692;-83
2022/06/02 11:27:01;;;;;;;10.27;9.98;;;23.90;99.90;;;;;;5025248;28;20224;-83
2022/06/02 11:30:37;;;;;;;10.63;10.32;;;24.20;99.90;;;;;;5024861;28;20227;-82
2022/06/02 11:34:01;;;;;;;10.57;10.27;;;24.70;99.90;;;;;;5010387;28;20255;-83
2022/06/02 11:37:25;;;;;;;10.80;10.50;;;24.70;99.90;;;;;;5015667;28;20282;-84
2022/06/02 11:40:29;;;;;;;10.68;10.38;;;25.10;99.90;;;;;;5020958;28;20296;-85
2022/06/02 11:43:14;;;;;;;10.65;10.35;;;25.60;99.90;;;;;;5019176;28;20259;-85
2022/06/02 11:49:58;;;;;;;10.57;10.27;;;25.70;99.90;;;;;;4982482;28;20239;-85
2022/06/02 11:56:16;;;;;;;10.40;10.10;;;25.70;99.90;;;;;;4992544;28;20371;-86
2022/06/02 11:59:50;;;;;;;10.32;10.02;;;25.90;99.90;;;;;;5014282;28;20706;-85
2022/06/02 12:03:31;;;;;;;10.32;10.02;;;26.00;99.90;;;;;;4959592;28;20245;-85
2022/06/02 12:06:46;;;;;;;10.50;10.20;;;26.50;99.90;;;;;;4978715;28;20225;-85
2022/06/02 12:18:14;;;;;;;10.45;10.15;;;25.60;99.90;;;;;;4956864;28;20302;-87
2022/06/02 12:25:34;;;;;;;10.75;10.45;;;25.20;99.90;;;;;;5017728;28;20228;-83
2022/06/02 12:29:08;;;;;;;10.73;10.43;;;25.40;99.90;;;;;;4954413;28;20238;-84
2022/06/02 12:32:10;;;;;;;10.77;10.48;;;25.90;99.90;;;;;;4962063;28;20221;-82
2022/06/02 12:35:35;;;;;;;10.70;10.40;;;26.30;99.90;;;;;;5023805;28;20232;-82
2022/06/02 12:38:54;;;;;;;10.65;10.35;;;26.60;99.90;;;;;;5014200;28;20232;-82
2022/06/02 12:41:44;;;;;;;10.52;10.23;;;26.60;99.90;;;;;;5017769;28;20342;-82
2022/06/02 12:48:47;;;;;;;10.80;10.50;;;27.00;99.90;;;;;;5004217;28;20223;-81
2022/06/02 12:51:51;;;;;;;10.50;10.20;;;27.00;99.90;;;;;;5021867;28;20323;-82
2022/06/02 12:55:21;;;;;;;10.32;10.02;;;27.10;99.90;;;;;;5021089;28;20303;-82
2022/06/02 12:58:51;;;;;;;10.18;9.88;;;26.50;99.90;;;;;;4958901;28;20238;-85
2022/06/02 13:01:48;;;;;;;9.93;9.63;;;26.30;99.90;;;;;;5021799;28;20280;-83
2022/06/02 13:05:29;;;;;;;9.80;9.50;;;26.40;99.90;;;;;;5036866;28;20279;-84
2022/06/02 13:08:48;;;;;;;9.90;9.60;;;26.60;99.90;;;;;;4959276;28;20309;-82
2022/06/02 13:12:04;;;;;;;10.30;10.00;;;26.70;99.90;;;;;;4961820;28;20296;-83
2022/06/02 13:15:37;;;;;;;10.25;9.95;;;26.60;99.90;;;;;;4925404;29;20387;-83
2022/06/02 13:19:05;;;;;;;10.23;9.93;;;26.90;99.90;;;;;;4940086;28;20223;-83
2022/06/02 13:22:18;;;;;;;10.10;9.80;;;27.00;99.90;;;;;;4986227;28;20293;-79
2022/06/02 13:25:50;;;;;;;10.57;10.27;;;27.40;99.90;;;;;;5021268;28;20282;-80
2022/06/02 13:29:29;;;;;;;10.43;10.13;;;27.70;99.90;;;;;;4960503;28;20203;-79
2022/06/02 13:32:54;;;;;;;10.30;10.00;;;27.90;99.90;;;;;;4932320;28;20278;-78
2022/06/02 13:36:22;;;;;;;9.98;9.68;;;27.80;99.90;;;;;;5031479;28;20236;-80
2022/06/02 13:39:27;;;;;;;10.20;9.90;;;28.00;99.90;;;;;;4985991;28;20241;-82
2022/06/02 13:42:25;;;;;;;10.18;9.88;;;28.00;99.90;;;;;;5019626;28;20223;-80
2022/06/02 13:45:36;;;;;;;10.50;10.20;;;28.00;99.90;;;;;;5019985;28;20546;-81
2022/06/02 13:48:58;;;;;;;10.30;10.00;;;27.90;99.90;;;;;;5019748;28;20239;-81
2022/06/02 13:52:46;;;;;;;10.20;9.90;;;28.00;99.90;;;;;;4971902;28;20239;-82
2022/06/02 13:59:05;;;;;;;10.30;10.00;;;27.30;99.90;;;;;;5019377;28;20228;-81
2022/06/02 14:05:13;;;;;;;10.40;10.10;;;26.90;99.90;;;;;;5029611;28;20231;-82
2022/06/02 14:08:56;;;;;;;10.30;10.00;;;26.80;99.90;;;;;;5040007;28;20231;-79
2022/06/02 14:11:44;;;;;;;9.98;9.68;;;26.50;99.90;;;;;;5013589;28;20235;-79
2022/06/02 14:14:54;;;;;;;10.40;10.10;;;26.80;99.90;;;;;;5041839;28;20289;-80
2022/06/02 14:18:07;;;;;;;10.45;10.15;;;27.20;99.90;;;;;;5024321;28;20232;-79
2022/06/02 14:20:46;;;;;;;10.63;10.32;;;27.30;99.90;;;;;;5028161;28;20234;-81
2022/06/02 14:23:33;;;;;;;10.57;10.27;;;27.70;99.90;;;;;;5026887;28;20240;-81
2022/06/02 14:26:11;;;;;;;10.40;10.10;;;27.60;99.90;;;;;;5026684;28;20260;-83
2022/06/02 14:29:07;;;;;;;10.70;10.40;;;27.50;99.90;;;;;;5025914;28;20244;-85
2022/06/02 14:31:55;;;;;;;10.18;9.88;;;27.00;99.90;;;;;;5026074;28;20230;-84
2022/06/02 14:34:41;;;;;;;10.00;9.70;;;27.00;99.90;;;;;;5017967;28;20243;-82
2022/06/02 14:37:22;;;;;;;9.90;9.60;;;26.90;99.90;;;;;;5023893;28;20236;-83
2022/06/02 14:40:09;;;;;;;10.00;9.70;;;27.20;99.90;;;;;;5028195;28;20224;-85
2022/06/02 14:43:20;;;;;;;9.90;9.60;;;27.50;99.90;;;;;;5013344;28;20256;-83
2022/06/02 14:57:28;;;;;;;10.50;10.20;;;26.90;99.90;;;;;;4980139;28;20267;-84
2022/06/02 15:00:51;;;;;;;;;;;;;;;;;;;;;
2022/06/02 15:11:52;;;;;;;10.00;9.70;;;26.00;99.90;;;;;;4935038;29;20565;-84
2022/06/02 15:15:09;;;;;;;9.93;9.63;;;25.80;99.90;;;;;;4945500;28;20233;-82
2022/06/02 15:18:05;;;;;;;9.90;9.60;;;25.50;99.90;;;;;;5027620;28;20251;-81
2022/06/02 15:21:00;;;;;;;9.93;9.63;;;25.50;99.90;;;;;;5028128;28;20307;-80
2022/06/02 15:24:05;;;;;;;10.00;9.70;;;25.70;99.90;;;;;;5029409;28;20256;-80
2022/06/02 15:27:04;;;;;;;10.00;9.70;;;25.90;99.90;;;;;;5034359;28;20235;-80
2022/06/02 15:30:41;;;;;;;10.00;9.70;;;25.40;99.90;;;;;;5017932;28;20232;-80
2022/06/02 15:34:11;;;;;;;9.70;9.40;;;25.30;99.90;;;;;;5000647;28;20806;-80
2022/06/02 15:37:34;;;;;;;9.77;9.48;;;25.40;99.90;;;;;;5023960;28;20232;-79
2022/06/02 15:40:40;;;;;;;9.93;9.63;;;25.20;99.90;;;;;;5023636;28;20240;-80
2022/06/02 15:44:35;;;;;;;;;;;;;;;;;;;;;
2022/06/02 15:48:10;;;;;;;10.70;10.40;;;25.30;99.90;;;;;;4997941;28;20237;-80
2022/06/02 15:51:12;;;;;;;10.40;10.10;;;25.90;99.90;;;;;;5005113;28;20224;-80
2022/06/02 15:54:17;;;;;;;9.85;9.55;;;26.60;99.90;;;;;;5012504;28;20281;-79
2022/06/02 15:57:47;;;;;;;10.05;9.75;;;26.80;99.90;;;;;;5049364;28;20291;-80
2022/06/02 16:01:10;;;;;;;10.10;9.80;;;27.00;99.90;;;;;;4993620;28;20300;-79
2022/06/02 16:04:26;;;;;;;10.23;9.93;;;27.40;99.90;;;;;;5039170;28;20240;-80
2022/06/02 16:08:02;;;;;;;10.15;9.85;;;27.40;99.90;;;;;;5039931;28;20252;-80
2022/06/02 16:11:25;;;;;;;10.13;9.82;;;27.60;99.90;;;;;;5038611;28;20228;-80
2022/06/02 16:14:47;;;;;;;10.10;9.80;;;27.80;99.90;;;;;;4984917;28;20280;-80
2022/06/02 16:18:00;;;;;;;10.40;10.10;;;28.20;99.90;;;;;;5020891;28;20342;-86
2022/06/02 16:21:13;;;;;;;10.48;10.18;;;28.40;99.90;;;;;;5020296;28;20256;-83
2022/06/02 16:24:18;;;;;;;10.35;10.05;;;28.30;99.90;;;;;;4998370;28;20236;-82